Главная страница
METAR-TAF:

METAR-TAF

Аэропорты :

Ботсфьорд, Норвегия

широта: 70-38N, долгота: 029-44E, высота над уровнем моря: 10 м

Текущие метеонаблюдения

Эта сводка был подготовлена 14 часа и 17 минут назад, в 19:50 UTC
Ветер 21 Узел от западный
Температура 1°C
Влажность 100%
Давление 1014 hPa
Видимость 10 км и более
небольшая облачность на высоте 600 фута
Отдельные облака на высоте 1400 фута
Рассеянная облачность на высоте 2200 фута
небольшие ливневые дожди, снег

METAR: ENBS 201950Z 28021KT 9999 -SHRASN FEW006 SCT014 BKN022 01/01 Q1014

Время: 12:07 (10:07 UTC)


TAF: отсутствует

Метеонаблюдения и прогнозы для более 4000 аэропортов (сводки METAR и TAF).

Имеющиеся станции представлены на карте желтыми и красными точками.

Чтобы увидеть название станции, наведите на нее мышь.

Затем щелкните, чтобы увидеть метеонаблюдения и метеопрогнозы.

Управление картой: чтобы увеличить масштаб, щелкните зеленые кнопки с черным крестиком; чтобы уменьшить масштаб, щелкните зеленую кнопку с тире; для просмотра соседних карт щелкайте зеленые стрелки.


METAR-TAF: